Time;durP1;ratioP1;P1;durP2;ratioP2;P2;SDS_P1;SDS_P2;PMS_P1;PMS_P2;Temp;Humidity;BMP_temperature;BMP_pressure;BME280_temperature;BME280_humidity;BME280_pressure;Samples;Min_cycle;Max_cycle;Signal;HPM_P1;HPM_P2
2022/03/22 00:01:26;;;;;;;106.60;52.45;;;;;;;;;;5057645;28;20098;-90
2022/03/22 00:03:53;;;;;;;82.88;44.05;;;;;;;;;;5058716;28;20028;-89
2022/03/22 00:06:19;;;;;;;71.05;33.67;;;;;;;;;;5057796;28;20458;-90
2022/03/22 00:08:46;;;;;;;58.60;31.95;;;;;;;;;;5058559;28;20075;-89
2022/03/22 00:11:12;;;;;;;61.72;33.13;;;;;;;;;;5058537;28;20031;-89
2022/03/22 00:13:39;;;;;;;67.88;36.38;;;;;;;;;;5057130;28;20029;-90
2022/03/22 00:16:07;;;;;;;52.40;27.92;;;;;;;;;;5058476;28;20047;-89
2022/03/22 00:18:34;;;;;;;87.90;39.75;;;;;;;;;;5057546;28;20073;-90
2022/03/22 00:21:00;;;;;;;77.80;38.80;;;;;;;;;;5058403;28;20318;-90
2022/03/22 00:23:26;;;;;;;81.05;41.05;;;;;;;;;;5058273;28;20358;-90
2022/03/22 00:25:52;;;;;;;77.07;40.97;;;;;;;;;;5057213;28;20422;-91
2022/03/22 00:28:19;;;;;;;69.65;37.75;;;;;;;;;;5057893;28;20076;-91
2022/03/22 00:30:45;;;;;;;55.28;29.23;;;;;;;;;;5058175;28;20024;-90
2022/03/22 00:33:11;;;;;;;51.65;27.33;;;;;;;;;;5058209;28;20021;-92
2022/03/22 00:35:38;;;;;;;49.33;25.67;;;;;;;;;;5057033;28;20025;-90
2022/03/22 00:38:05;;;;;;;53.63;25.60;;;;;;;;;;5058049;28;20028;-90
2022/03/22 00:40:31;;;;;;;47.65;25.88;;;;;;;;;;5056993;28;20063;-91
2022/03/22 00:42:57;;;;;;;52.88;26.92;;;;;;;;;;5057793;28;20032;-90
2022/03/22 00:45:27;;;;;;;57.78;28.02;;;;;;;;;;5056948;28;20069;-90
2022/03/22 00:47:54;;;;;;;56.13;26.73;;;;;;;;;;5056897;28;20082;-90
2022/03/22 00:50:29;;;;;;;53.10;28.58;;;;;;;;;;5057523;28;20025;-90
2022/03/22 00:52:58;;;;;;;50.03;25.42;;;;;;;;;;5057629;28;20027;-92
2022/03/22 00:55:26;;;;;;;52.42;26.13;;;;;;;;;;5056712;28;20031;-91
2022/03/22 00:57:52;;;;;;;48.47;26.60;;;;;;;;;;5057568;28;20117;-92
2022/03/22 01:00:19;;;;;;;49.72;25.38;;;;;;;;;;5057926;28;20021;-90
2022/03/22 01:02:49;;;;;;;47.65;23.73;;;;;;;;;;5057897;28;20044;-91
2022/03/22 01:05:19;;;;;;;50.22;25.15;;;;;;;;;;5057637;28;20084;-91
2022/03/22 01:07:45;;;;;;;47.30;25.38;;;;;;;;;;5056732;28;20435;-92
2022/03/22 01:10:12;;;;;;;54.45;26.85;;;;;;;;;;5056438;28;20349;-92
2022/03/22 01:12:40;;;;;;;52.55;25.55;;;;;;;;;;5056795;28;20086;-91
2022/03/22 01:15:11;;;;;;;58.92;31.23;;;;;;;;;;5057700;28;20032;-93
2022/03/22 01:17:37;;;;;;;62.95;32.40;;;;;;;;;;5057427;28;20020;-91
2022/03/22 01:20:05;;;;;;;62.75;33.67;;;;;;;;;;5056532;28;20097;-91
2022/03/22 01:22:32;;;;;;;57.28;30.60;;;;;;;;;;5057451;28;20023;-91
2022/03/22 01:24:58;;;;;;;63.78;32.17;;;;;;;;;;5057122;28;20040;-91
2022/03/22 01:27:26;;;;;;;62.13;30.55;;;;;;;;;;5058830;28;20100;-91
2022/03/22 01:29:52;;;;;;;50.97;26.90;;;;;;;;;;5057407;28;20049;-91
2022/03/22 01:32:18;;;;;;;53.38;28.02;;;;;;;;;;5057413;28;20071;-92
2022/03/22 01:34:44;;;;;;;54.88;26.23;;;;;;;;;;5057570;28;20029;-90
2022/03/22 01:37:11;;;;;;;53.15;25.08;;;;;;;;;;5057329;28;20021;-89
2022/03/22 01:39:37;;;;;;;46.80;24.42;;;;;;;;;;5056329;28;20033;-92
2022/03/22 01:42:04;;;;;;;45.40;24.30;;;;;;;;;;5057386;28;20108;-90
2022/03/22 01:44:30;;;;;;;47.90;24.85;;;;;;;;;;5057274;28;20029;-89
2022/03/22 01:47:01;;;;;;;48.70;25.23;;;;;;;;;;5057214;28;20053;-91
2022/03/22 01:49:27;;;;;;;48.60;24.58;;;;;;;;;;5057266;28;20032;-90
2022/03/22 01:51:55;;;;;;;49.72;24.08;;;;;;;;;;5057187;28;20362;-90
2022/03/22 01:54:21;;;;;;;51.88;25.35;;;;;;;;;;5056164;28;20021;-92
2022/03/22 01:56:47;;;;;;;53.30;27.05;;;;;;;;;;5057057;28;20027;-90
2022/03/22 01:59:13;;;;;;;46.00;26.20;;;;;;;;;;5056316;28;20029;-90
2022/03/22 02:07:22;;;;;;;51.40;26.92;;;;;;;;;;5023589;28;20096;-90
2022/03/22 02:09:48;;;;;;;60.90;28.60;;;;;;;;;;5019217;28;20030;-91
2022/03/22 02:12:14;;;;;;;63.92;30.95;;;;;;;;;;5035481;28;20057;-91
2022/03/22 02:14:40;;;;;;;64.15;32.28;;;;;;;;;;5035445;28;20021;-90
2022/03/22 02:17:10;;;;;;;57.80;30.10;;;;;;;;;;5035297;28;20026;-91
2022/03/22 02:19:38;;;;;;;57.30;26.95;;;;;;;;;;5038729;28;20026;-91
2022/03/22 02:22:06;;;;;;;46.45;26.38;;;;;;;;;;5038832;28;20113;-91
2022/03/22 02:24:32;;;;;;;45.15;23.60;;;;;;;;;;5039089;28;20053;-92
2022/03/22 02:26:59;;;;;;;48.83;25.67;;;;;;;;;;5038858;28;20029;-90
2022/03/22 02:29:25;;;;;;;48.17;24.60;;;;;;;;;;5021972;28;20092;-90
2022/03/22 02:31:53;;;;;;;52.45;25.02;;;;;;;;;;5038622;28;20025;-90
2022/03/22 02:34:19;;;;;;;46.60;23.42;;;;;;;;;;5038808;28;20041;-91
2022/03/22 02:36:46;;;;;;;44.92;23.10;;;;;;;;;;5038687;28;20037;-91
2022/03/22 02:39:12;;;;;;;48.95;24.88;;;;;;;;;;5038790;28;20022;-90
2022/03/22 02:41:38;;;;;;;49.20;25.73;;;;;;;;;;5038657;28;20412;-91
2022/03/22 02:44:05;;;;;;;49.55;25.48;;;;;;;;;;5057827;28;20037;-90
2022/03/22 02:46:31;;;;;;;48.65;26.13;;;;;;;;;;5061018;28;20028;-91
2022/03/22 02:48:57;;;;;;;54.78;25.38;;;;;;;;;;5059942;28;20025;-91
2022/03/22 02:51:23;;;;;;;50.50;25.73;;;;;;;;;;5059049;28;20430;-89
2022/03/22 02:53:49;;;;;;;49.65;26.38;;;;;;;;;;5060320;28;20024;-89
2022/03/22 02:56:15;;;;;;;51.42;25.60;;;;;;;;;;5059927;28;20018;-91
2022/03/22 02:58:41;;;;;;;53.35;26.40;;;;;;;;;;5060056;28;20041;-90
2022/03/22 03:01:07;;;;;;;52.47;27.23;;;;;;;;;;5059788;28;20083;-91
2022/03/22 03:03:33;;;;;;;45.70;25.58;;;;;;;;;;5059570;28;20112;-91
2022/03/22 03:06:00;;;;;;;47.13;25.25;;;;;;;;;;5059683;28;20052;-91
2022/03/22 03:08:26;;;;;;;51.42;25.52;;;;;;;;;;5059621;28;20043;-91
2022/03/22 03:10:53;;;;;;;46.53;25.58;;;;;;;;;;5059684;28;20426;-91
2022/03/22 03:13:20;;;;;;;52.13;26.20;;;;;;;;;;5058930;28;20028;-89
2022/03/22 03:15:46;;;;;;;44.40;24.15;;;;;;;;;;5059607;28;20025;-91
2022/03/22 03:18:13;;;;;;;54.72;27.23;;;;;;;;;;5058456;28;20323;-90
2022/03/22 03:20:39;;;;;;;53.60;26.92;;;;;;;;;;5059085;28;20032;-90
2022/03/22 03:23:05;;;;;;;52.58;26.20;;;;;;;;;;5059328;28;20120;-91
2022/03/22 03:25:31;;;;;;;49.25;25.40;;;;;;;;;;5058771;28;20032;-91
2022/03/22 03:27:57;;;;;;;53.55;28.13;;;;;;;;;;5059064;28;20427;-91
2022/03/22 03:30:23;;;;;;;50.90;28.02;;;;;;;;;;5058290;28;20430;-90
2022/03/22 03:32:50;;;;;;;53.22;27.50;;;;;;;;;;5059457;28;20047;-89
2022/03/22 03:35:16;;;;;;;52.65;27.52;;;;;;;;;;5059267;28;20021;-90
2022/03/22 03:37:43;;;;;;;48.90;26.35;;;;;;;;;;5059082;28;20021;-91
2022/03/22 03:40:10;;;;;;;56.05;28.20;;;;;;;;;;5059060;28;20025;-90
2022/03/22 03:42:42;;;;;;;57.28;28.02;;;;;;;;;;5058975;28;20063;-91
2022/03/22 03:47:59;;;;;;;51.85;26.10;;;;;;;;;;5059169;28;20063;-90
2022/03/22 03:50:26;;;;;;;51.55;26.40;;;;;;;;;;5058708;28;20311;-90
2022/03/22 03:52:52;;;;;;;50.78;25.17;;;;;;;;;;5059012;28;20044;-91
2022/03/22 03:55:18;;;;;;;57.25;25.60;;;;;;;;;;5058259;28;20030;-91
2022/03/22 03:57:44;;;;;;;66.88;32.28;;;;;;;;;;5057764;28;20064;-90
2022/03/22 04:00:11;;;;;;;50.40;26.25;;;;;;;;;;5057904;28;20430;-91
2022/03/22 04:02:37;;;;;;;57.65;26.58;;;;;;;;;;5057544;28;20035;-91
2022/03/22 04:05:03;;;;;;;60.10;27.25;;;;;;;;;;5059794;28;20018;-91
2022/03/22 04:07:29;;;;;;;55.35;31.55;;;;;;;;;;5058707;28;20040;-92
2022/03/22 04:09:55;;;;;;;49.28;29.02;;;;;;;;;;5057862;28;20029;-92
2022/03/22 04:12:22;;;;;;;46.63;24.85;;;;;;;;;;5058246;28;20025;-92
2022/03/22 04:14:51;;;;;;;46.40;25.38;;;;;;;;;;5058595;28;20021;-90
2022/03/22 04:17:18;;;;;;;43.30;24.13;;;;;;;;;;5058447;28;20109;-90
2022/03/22 04:19:45;;;;;;;49.83;28.60;;;;;;;;;;5058487;28;20021;-90
2022/03/22 04:22:11;;;;;;;50.53;29.73;;;;;;;;;;5058302;28;20029;-91
2022/03/22 04:24:37;;;;;;;49.88;30.48;;;;;;;;;;5057989;28;20103;-90
2022/03/22 04:32:42;;;;;;;46.95;26.65;;;;;;;;;;5058111;28;20039;-90
2022/03/22 04:35:18;;;;;;;52.55;26.58;;;;;;;;;;5058179;28;20028;-90
2022/03/22 04:37:55;;;;;;;46.83;26.83;;;;;;;;;;5058189;28;20028;-90
2022/03/22 04:40:22;;;;;;;110.97;38.00;;;;;;;;;;5056663;28;20021;-90
2022/03/22 04:42:49;;;;;;;78.85;36.30;;;;;;;;;;5057758;28;20108;-90
2022/03/22 04:45:16;;;;;;;123.68;52.55;;;;;;;;;;5057897;28;20017;-90
2022/03/22 04:47:45;;;;;;;118.75;53.97;;;;;;;;;;5057861;28;20074;-90
2022/03/22 04:50:12;;;;;;;123.38;60.60;;;;;;;;;;5057713;28;20013;-90
2022/03/22 04:58:35;;;;;;;101.25;50.70;;;;;;;;;;4958036;29;20039;-90
2022/03/22 05:01:01;;;;;;;91.03;44.60;;;;;;;;;;4942040;29;20091;-89
2022/03/22 05:03:27;;;;;;;94.50;45.97;;;;;;;;;;4941937;29;20039;-89
2022/03/22 05:08:38;;;;;;;123.95;57.58;;;;;;;;;;4958268;29;20457;-90
2022/03/22 05:11:04;;;;;;;131.52;58.63;;;;;;;;;;4957887;29;20031;-91
2022/03/22 05:13:30;;;;;;;110.80;57.13;;;;;;;;;;4941922;29;20126;-90
2022/03/22 05:15:56;;;;;;;111.22;54.75;;;;;;;;;;4957777;29;20473;-91
2022/03/22 05:18:23;;;;;;;118.65;56.65;;;;;;;;;;4951401;29;20027;-91
2022/03/22 05:20:49;;;;;;;95.63;45.65;;;;;;;;;;4932029;29;20055;-90
2022/03/22 05:23:17;;;;;;;67.47;34.50;;;;;;;;;;4927798;29;20044;-90
2022/03/22 05:25:43;;;;;;;76.82;36.80;;;;;;;;;;4928161;29;20037;-90
2022/03/22 05:28:09;;;;;;;87.18;43.20;;;;;;;;;;4955429;29;20052;-91
2022/03/22 05:30:35;;;;;;;112.93;51.53;;;;;;;;;;4957757;29;20091;-90
2022/03/22 05:33:02;;;;;;;122.80;56.05;;;;;;;;;;4941983;28;20087;-90
2022/03/22 05:35:28;;;;;;;181.23;71.47;;;;;;;;;;4990164;28;20037;-91
2022/03/22 05:37:54;;;;;;;384.73;127.68;;;;;;;;;;5017615;28;20026;-90
2022/03/22 05:40:21;;;;;;;390.83;136.50;;;;;;;;;;5016875;28;20026;-92
2022/03/22 05:42:47;;;;;;;394.00;136.88;;;;;;;;;;5017760;28;20363;-89
2022/03/22 05:45:13;;;;;;;376.08;130.13;;;;;;;;;;5019704;28;20014;-92
2022/03/22 05:47:39;;;;;;;342.00;126.15;;;;;;;;;;5037637;28;20059;-92
2022/03/22 05:50:06;;;;;;;393.52;145.63;;;;;;;;;;5037520;28;20032;-90
2022/03/22 05:52:32;;;;;;;149.43;60.22;;;;;;;;;;5037243;28;20033;-91
2022/03/22 05:54:58;;;;;;;106.00;48.13;;;;;;;;;;5032728;28;20125;-91
2022/03/22 05:57:24;;;;;;;113.45;51.13;;;;;;;;;;5020167;28;20030;-90
2022/03/22 05:59:50;;;;;;;116.85;55.40;;;;;;;;;;5020864;28;20488;-90
2022/03/22 06:02:16;;;;;;;107.63;50.67;;;;;;;;;;5037791;28;20040;-91
2022/03/22 06:04:42;;;;;;;89.80;41.63;;;;;;;;;;5024437;28;20026;-89
2022/03/22 06:07:09;;;;;;;57.05;32.78;;;;;;;;;;5021102;28;20428;-91
2022/03/22 06:09:35;;;;;;;59.30;30.67;;;;;;;;;;5021068;28;20324;-90
2022/03/22 06:12:01;;;;;;;54.03;29.67;;;;;;;;;;5020970;28;20025;-90
2022/03/22 06:14:27;;;;;;;55.40;27.92;;;;;;;;;;5020064;28;20025;-90
2022/03/22 06:16:53;;;;;;;52.92;28.42;;;;;;;;;;5019890;28;20063;-90
2022/03/22 06:19:19;;;;;;;58.63;30.02;;;;;;;;;;5020827;28;20021;-91
2022/03/22 06:21:45;;;;;;;62.65;31.02;;;;;;;;;;5021662;28;20025;-93
2022/03/22 06:24:11;;;;;;;55.17;30.13;;;;;;;;;;5021462;28;20049;-94
2022/03/22 06:26:37;;;;;;;55.97;29.05;;;;;;;;;;5020104;28;20053;-93
2022/03/22 06:29:03;;;;;;;49.70;29.13;;;;;;;;;;5020268;28;20050;-92
2022/03/22 06:31:33;;;;;;;44.15;23.52;;;;;;;;;;5019830;28;20065;-93
2022/03/22 06:34:00;;;;;;;45.13;22.67;;;;;;;;;;5019885;28;20034;-94
2022/03/22 06:36:27;;;;;;;40.50;21.00;;;;;;;;;;5020600;28;20416;-92
2022/03/22 06:38:53;;;;;;;37.85;20.83;;;;;;;;;;5019825;28;20033;-94
2022/03/22 06:41:19;;;;;;;40.53;21.42;;;;;;;;;;5020636;28;20030;-94
2022/03/22 06:43:45;;;;;;;36.28;20.77;;;;;;;;;;5021218;28;20049;-94
2022/03/22 06:46:11;;;;;;;38.33;21.60;;;;;;;;;;5020435;28;20037;-92
2022/03/22 06:48:37;;;;;;;32.55;18.45;;;;;;;;;;5019361;28;20022;-92
2022/03/22 06:51:04;;;;;;;30.02;18.92;;;;;;;;;;5019306;28;20030;-93
2022/03/22 06:53:30;;;;;;;37.22;21.13;;;;;;;;;;5019543;28;20037;-95
2022/03/22 06:55:57;;;;;;;43.75;23.00;;;;;;;;;;5019424;28;20021;-93
2022/03/22 06:58:24;;;;;;;73.32;30.38;;;;;;;;;;5020221;28;20034;-92
2022/03/22 07:00:52;;;;;;;65.63;32.08;;;;;;;;;;5020168;28;20022;-93
2022/03/22 07:03:18;;;;;;;45.30;24.83;;;;;;;;;;5020141;28;20026;-93
2022/03/22 07:05:47;;;;;;;44.95;21.73;;;;;;;;;;5019747;28;20022;-94
2022/03/22 07:08:13;;;;;;;44.10;20.70;;;;;;;;;;5018920;28;20026;-94
2022/03/22 07:10:40;;;;;;;40.88;20.90;;;;;;;;;;5019778;28;20038;-93
2022/03/22 07:13:09;;;;;;;39.75;19.38;;;;;;;;;;5019032;28;20025;-93
2022/03/22 07:15:36;;;;;;;44.95;18.88;;;;;;;;;;5019823;28;20382;-93
2022/03/22 07:18:03;;;;;;;37.85;18.00;;;;;;;;;;5019679;28;20033;-93
2022/03/22 07:20:30;;;;;;;35.38;17.05;;;;;;;;;;5019732;28;20029;-92
2022/03/22 07:22:56;;;;;;;38.92;18.25;;;;;;;;;;5019589;28;20405;-92
2022/03/22 07:25:22;;;;;;;28.02;16.75;;;;;;;;;;5019861;28;20474;-91
2022/03/22 07:27:48;;;;;;;33.30;17.40;;;;;;;;;;5019527;28;20080;-92
2022/03/22 07:30:15;;;;;;;28.23;15.95;;;;;;;;;;5019225;28;20108;-92
2022/03/22 07:32:42;;;;;;;32.75;17.33;;;;;;;;;;5019930;28;20018;-92
2022/03/22 07:35:08;;;;;;;26.42;16.98;;;;;;;;;;5018630;28;20026;-92
2022/03/22 07:37:36;;;;;;;28.30;17.98;;;;;;;;;;5019325;28;20383;-93
2022/03/22 07:40:04;;;;;;;32.95;16.80;;;;;;;;;;5019363;28;20030;-92
2022/03/22 07:42:30;;;;;;;27.52;16.85;;;;;;;;;;5019651;28;20034;-88
2022/03/22 07:44:57;;;;;;;42.45;17.60;;;;;;;;;;5019569;28;20021;-91
2022/03/22 07:47:24;;;;;;;25.67;16.65;;;;;;;;;;5019270;28;20026;-92
2022/03/22 07:55:20;;;;;;;28.27;17.40;;;;;;;;;;5019369;28;20064;-92
2022/03/22 07:57:46;;;;;;;31.33;17.10;;;;;;;;;;5018045;28;20022;-92
2022/03/22 08:00:13;;;;;;;26.60;16.67;;;;;;;;;;5018248;28;20026;-92
2022/03/22 08:02:50;;;;;;;27.15;16.83;;;;;;;;;;5019782;28;20062;-92
2022/03/22 08:05:16;;;;;;;31.55;17.88;;;;;;;;;;5018200;28;20374;-92
2022/03/22 08:07:42;;;;;;;28.85;15.82;;;;;;;;;;5018894;28;20022;-92
2022/03/22 08:10:08;;;;;;;26.88;15.77;;;;;;;;;;5018056;28;20030;-91
2022/03/22 08:12:34;;;;;;;23.88;15.73;;;;;;;;;;5018866;28;20030;-93
2022/03/22 08:15:00;;;;;;;31.05;15.63;;;;;;;;;;5018834;28;20034;-92
2022/03/22 08:17:27;;;;;;;22.80;14.70;;;;;;;;;;5018263;28;20112;-93
2022/03/22 08:19:53;;;;;;;25.95;15.15;;;;;;;;;;5018796;28;20034;-92
2022/03/22 08:22:19;;;;;;;23.70;14.80;;;;;;;;;;5018636;28;20033;-93
2022/03/22 08:24:45;;;;;;;26.35;15.02;;;;;;;;;;5018632;28;20361;-93
2022/03/22 08:27:26;;;;;;;22.80;15.10;;;;;;;;;;5018576;28;20034;-92
2022/03/22 08:29:52;;;;;;;28.60;14.65;;;;;;;;;;5017448;28;20136;-92
2022/03/22 08:32:19;;;;;;;24.17;14.38;;;;;;;;;;5018267;28;20022;-92
2022/03/22 08:34:45;;;;;;;23.08;14.27;;;;;;;;;;5018304;28;20040;-92
2022/03/22 08:37:12;;;;;;;25.80;15.52;;;;;;;;;;5018564;28;20018;-90
2022/03/22 08:39:39;;;;;;;23.50;14.68;;;;;;;;;;5018027;28;20026;-94
2022/03/22 08:42:06;;;;;;;22.55;13.95;;;;;;;;;;5018574;28;20026;-91
2022/03/22 08:44:32;;;;;;;22.85;14.35;;;;;;;;;;5018643;28;20420;-91
2022/03/22 08:47:01;;;;;;;20.65;12.75;;;;;;;;;;5018305;28;20056;-91
2022/03/22 08:49:27;;;;;;;21.20;12.90;;;;;;;;;;5017247;28;20026;-90
2022/03/22 08:51:53;;;;;;;28.25;14.38;;;;;;;;;;5017993;28;20436;-92
2022/03/22 08:54:19;;;;;;;23.73;13.40;;;;;;;;;;5017118;28;20400;-90
2022/03/22 08:56:45;;;;;;;21.17;12.98;;;;;;;;;;5034958;28;20037;-91
2022/03/22 08:59:11;;;;;;;20.15;12.25;;;;;;;;;;5053636;28;20037;-91
2022/03/22 09:01:37;;;;;;;19.25;12.82;;;;;;;;;;5037941;28;20031;-91
2022/03/22 09:06:48;;;;;;;22.52;12.95;;;;;;;;;;5038049;28;20083;-92
2022/03/22 09:09:14;;;;;;;21.20;13.55;;;;;;;;;;5053298;28;20423;-92
2022/03/22 09:11:40;;;;;;;18.95;13.30;;;;;;;;;;5053535;28;20044;-91
2022/03/22 09:14:06;;;;;;;17.17;11.50;;;;;;;;;;5038352;28;20026;-93
2022/03/22 09:16:34;;;;;;;17.60;10.07;;;;;;;;;;5039556;28;20041;-94
2022/03/22 09:19:00;;;;;;;17.40;10.63;;;;;;;;;;5057454;28;20018;-95
2022/03/22 09:21:26;;;;;;;16.45;9.48;;;;;;;;;;5037915;28;20029;-92
2022/03/22 09:23:54;;;;;;;13.27;9.27;;;;;;;;;;5038251;28;20018;-93
2022/03/22 09:26:28;;;;;;;14.80;9.70;;;;;;;;;;5037807;28;20100;-93
2022/03/22 09:28:55;;;;;;;17.50;9.73;;;;;;;;;;5040546;28;20058;-92
2022/03/22 09:31:23;;;;;;;14.73;9.75;;;;;;;;;;5041485;28;20106;-92
2022/03/22 09:33:49;;;;;;;19.33;10.90;;;;;;;;;;5041506;28;20032;-91
2022/03/22 09:36:15;;;;;;;15.48;9.70;;;;;;;;;;5057144;28;20022;-91
2022/03/22 09:38:41;;;;;;;16.02;9.70;;;;;;;;;;5041315;28;20021;-91
2022/03/22 09:41:08;;;;;;;12.95;9.05;;;;;;;;;;5041575;28;20422;-91
2022/03/22 09:43:34;;;;;;;14.43;10.18;;;;;;;;;;5041424;28;20053;-91
2022/03/22 09:46:03;;;;;;;18.30;9.75;;;;;;;;;;5057099;28;20029;-90
2022/03/22 09:48:31;;;;;;;17.85;10.02;;;;;;;;;;5040418;28;20037;-91
2022/03/22 09:53:41;;;;;;;20.50;11.98;;;;;;;;;;5041369;28;20036;-91
2022/03/22 09:56:08;;;;;;;21.92;12.65;;;;;;;;;;5041280;28;20018;-91
2022/03/22 09:58:34;;;;;;;17.00;10.85;;;;;;;;;;5041187;28;20036;-91
2022/03/22 10:01:01;;;;;;;15.77;10.32;;;;;;;;;;5041322;28;20106;-91
2022/03/22 10:03:28;;;;;;;17.10;10.52;;;;;;;;;;5041019;28;20033;-92
2022/03/22 10:05:58;;;;;;;17.98;10.50;;;;;;;;;;5040930;28;20029;-90
2022/03/22 10:08:24;;;;;;;14.40;9.57;;;;;;;;;;5056685;28;20472;-90
2022/03/22 10:11:01;;;;;;;17.52;10.13;;;;;;;;;;5040905;28;20033;-90
2022/03/22 10:13:28;;;;;;;15.02;9.82;;;;;;;;;;5040851;28;20475;-91
2022/03/22 10:16:01;;;;;;;16.42;10.65;;;;;;;;;;5040784;28;20036;-92
2022/03/22 10:18:28;;;;;;;21.13;13.82;;;;;;;;;;5040799;28;20021;-92
2022/03/22 10:21:01;;;;;;;20.38;10.35;;;;;;;;;;5040598;28;20434;-91
2022/03/22 10:23:27;;;;;;;16.80;11.27;;;;;;;;;;5056337;28;20025;-89
2022/03/22 10:26:02;;;;;;;17.05;10.20;;;;;;;;;;5040604;28;20028;-90
2022/03/22 10:28:28;;;;;;;19.23;10.60;;;;;;;;;;5040577;28;20042;-91
2022/03/22 10:30:57;;;;;;;16.85;10.50;;;;;;;;;;5056181;28;20116;-91
2022/03/22 10:33:24;;;;;;;16.35;10.35;;;;;;;;;;5056252;28;20064;-90
2022/03/22 10:35:50;;;;;;;24.30;13.48;;;;;;;;;;5040692;28;20036;-91
2022/03/22 10:38:19;;;;;;;18.63;12.38;;;;;;;;;;5040112;28;20017;-91
2022/03/22 10:40:46;;;;;;;23.25;12.25;;;;;;;;;;5040452;28;20108;-91
2022/03/22 10:43:23;;;;;;;15.90;10.85;;;;;;;;;;5056486;28;20445;-90
2022/03/22 10:45:49;;;;;;;21.38;11.38;;;;;;;;;;5040191;28;20030;-90
2022/03/22 10:48:19;;;;;;;19.00;11.85;;;;;;;;;;5040026;28;20041;-91
2022/03/22 10:50:47;;;;;;;19.60;11.63;;;;;;;;;;5055545;28;20309;-90
2022/03/22 10:53:17;;;;;;;19.92;10.75;;;;;;;;;;5040109;28;20395;-90
2022/03/22 10:55:44;;;;;;;15.90;10.68;;;;;;;;;;5040177;28;20029;-90
2022/03/22 10:58:12;;;;;;;22.70;11.52;;;;;;;;;;5039721;28;20072;-90
2022/03/22 11:00:38;;;;;;;22.42;11.75;;;;;;;;;;5039828;28;20025;-90
2022/03/22 11:03:05;;;;;;;16.55;10.85;;;;;;;;;;5040124;28;20056;-90
2022/03/22 11:05:33;;;;;;;21.63;11.90;;;;;;;;;;5039805;28;20534;-90
2022/03/22 11:07:59;;;;;;;18.48;11.20;;;;;;;;;;5055383;28;20087;-91
2022/03/22 11:10:29;;;;;;;19.08;11.40;;;;;;;;;;5055154;28;20420;-91
2022/03/22 11:12:56;;;;;;;17.67;11.30;;;;;;;;;;5039803;28;20024;-91
2022/03/22 11:15:22;;;;;;;15.27;10.02;;;;;;;;;;5055353;28;20024;-91
2022/03/22 11:17:49;;;;;;;17.77;10.88;;;;;;;;;;5039784;28;20072;-90
2022/03/22 11:20:17;;;;;;;18.70;11.20;;;;;;;;;;5055332;28;20018;-89
2022/03/22 11:22:49;;;;;;;18.02;10.95;;;;;;;;;;5039428;28;20030;-90
2022/03/22 11:25:18;;;;;;;22.40;11.88;;;;;;;;;;5039367;28;20037;-90
2022/03/22 11:27:54;;;;;;;19.98;11.55;;;;;;;;;;5054605;28;20056;-90
2022/03/22 11:30:20;;;;;;;16.58;10.63;;;;;;;;;;5038998;28;20060;-89
2022/03/22 11:35:32;;;;;;;15.05;9.63;;;;;;;;;;5039538;28;20123;-90
2022/03/22 11:38:02;;;;;;;16.75;9.70;;;;;;;;;;5038316;28;20017;-89
2022/03/22 11:43:13;;;;;;;14.82;8.57;;;;;;;;;;5039233;28;20032;-90
2022/03/22 11:45:49;;;;;;;15.73;9.45;;;;;;;;;;5039858;28;20219;-90
2022/03/22 11:48:16;;;;;;;15.52;9.77;;;;;;;;;;5043460;28;20022;-90
2022/03/22 11:50:43;;;;;;;17.42;9.40;;;;;;;;;;5056246;28;20033;-90
2022/03/22 11:53:16;;;;;;;20.77;10.13;;;;;;;;;;5059153;28;20024;-90
2022/03/22 11:55:42;;;;;;;35.92;9.13;;;;;;;;;;5058795;28;20021;-89
2022/03/22 11:58:09;;;;;;;13.93;8.80;;;;;;;;;;5058903;28;20430;-90
2022/03/22 12:01:04;;;;;;;18.05;9.82;;;;;;;;;;5058917;28;20430;-90
2022/03/22 12:03:35;;;;;;;15.05;10.07;;;;;;;;;;5036657;28;20043;-90
2022/03/22 12:06:11;;;;;;;16.52;10.23;;;;;;;;;;5020540;28;20021;-89
2022/03/22 12:08:37;;;;;;;18.33;9.75;;;;;;;;;;5037299;28;20321;-90
2022/03/22 12:11:03;;;;;;;19.15;10.32;;;;;;;;;;5037016;28;20025;-89
2022/03/22 12:13:32;;;;;;;15.30;9.98;;;;;;;;;;5036961;28;20080;-89
2022/03/22 12:15:59;;;;;;;16.60;10.75;;;;;;;;;;5036842;28;20071;-90
2022/03/22 12:18:31;;;;;;;18.30;10.93;;;;;;;;;;5037008;28;20102;-90
2022/03/22 12:20:57;;;;;;;;;;;;;;;;;;5020578;28;20033;-89
2022/03/22 12:23:24;;;;;;;20.05;10.63;;;;;;;;;;5036638;28;20024;-89
2022/03/22 12:25:51;;;;;;;13.63;9.10;;;;;;;;;;5036749;28;20026;-89
2022/03/22 12:28:17;;;;;;;18.67;11.02;;;;;;;;;;5036306;28;20447;-89
2022/03/22 12:30:45;;;;;;;19.80;11.25;;;;;;;;;;5036592;28;20072;-89
2022/03/22 12:33:15;;;;;;;21.60;11.50;;;;;;;;;;5036589;28;20031;-89
2022/03/22 12:35:42;;;;;;;20.60;10.60;;;;;;;;;;5036386;28;20029;-88
2022/03/22 12:38:09;;;;;;;20.83;12.10;;;;;;;;;;5036697;28;20022;-91
2022/03/22 12:40:35;;;;;;;21.23;12.77;;;;;;;;;;5053737;28;20029;-89
2022/03/22 12:43:06;;;;;;;21.15;13.15;;;;;;;;;;5057047;28;20021;-88
2022/03/22 12:45:33;;;;;;;22.70;12.98;;;;;;;;;;5057798;28;20088;-88
2022/03/22 12:47:59;;;;;;;20.58;12.02;;;;;;;;;;5058172;28;20025;-89
2022/03/22 12:50:27;;;;;;;23.00;12.13;;;;;;;;;;5057528;28;20025;-88
2022/03/22 12:52:54;;;;;;;22.92;12.05;;;;;;;;;;5037897;28;20100;-89
2022/03/22 12:55:20;;;;;;;22.02;12.75;;;;;;;;;;5037917;28;20105;-89
2022/03/22 12:57:48;;;;;;;22.13;11.77;;;;;;;;;;5037750;28;21405;-88
2022/03/22 13:00:25;;;;;;;20.73;11.60;;;;;;;;;;5036889;28;20026;-89
2022/03/22 13:02:51;;;;;;;20.60;11.43;;;;;;;;;;5037411;28;20059;-89
2022/03/22 13:05:23;;;;;;;19.15;12.00;;;;;;;;;;5037704;28;20037;-88
2022/03/22 13:07:49;;;;;;;23.55;11.13;;;;;;;;;;5037211;28;20021;-89
2022/03/22 13:13:02;;;;;;;22.35;12.23;;;;;;;;;;5037906;28;20044;-89
2022/03/22 13:15:28;;;;;;;21.85;13.75;;;;;;;;;;5037561;28;20112;-89
2022/03/22 13:17:54;;;;;;;23.70;11.88;;;;;;;;;;5036440;28;20033;-89
2022/03/22 13:20:24;;;;;;;17.85;10.73;;;;;;;;;;5037747;28;20392;-90
2022/03/22 13:22:58;;;;;;;18.08;10.68;;;;;;;;;;5036609;28;20057;-90
2022/03/22 13:25:33;;;;;;;17.05;10.93;;;;;;;;;;5037398;28;20029;-89
2022/03/22 13:28:06;;;;;;;14.43;10.23;;;;;;;;;;5037732;28;20057;-89
2022/03/22 13:30:33;;;;;;;18.65;9.88;;;;;;;;;;5036499;28;20045;-88
2022/03/22 13:33:05;;;;;;;16.50;9.88;;;;;;;;;;5037544;28;20029;-89
2022/03/22 13:35:31;;;;;;;16.42;9.85;;;;;;;;;;5036562;28;20018;-89
2022/03/22 13:37:57;;;;;;;23.15;10.50;;;;;;;;;;5037345;28;20052;-89
2022/03/22 13:40:23;;;;;;;20.20;10.50;;;;;;;;;;5036069;28;20116;-89
2022/03/22 13:46:11;;;;;;;17.70;11.57;;;;;;;;;;5037736;28;20116;-89
2022/03/22 13:48:49;;;;;;;18.83;10.63;;;;;;;;;;5037205;28;20074;-89
2022/03/22 13:51:22;;;;;;;18.48;10.00;;;;;;;;;;5036272;28;20037;-88
2022/03/22 13:53:49;;;;;;;17.85;9.45;;;;;;;;;;5037275;28;20032;-89
2022/03/22 13:56:15;;;;;;;21.58;9.30;;;;;;;;;;5037417;28;20367;-89
2022/03/22 13:58:42;;;;;;;20.50;9.25;;;;;;;;;;5037595;28;20388;-89
2022/03/22 14:01:13;;;;;;;15.35;9.13;;;;;;;;;;5037794;28;20046;-89
2022/03/22 14:03:39;;;;;;;16.48;8.95;;;;;;;;;;5037643;28;20029;-89
2022/03/22 14:06:07;;;;;;;17.95;10.20;;;;;;;;;;5037652;28;20036;-89
2022/03/22 14:08:35;;;;;;;15.70;8.95;;;;;;;;;;5037128;28;20036;-90
2022/03/22 14:11:02;;;;;;;13.77;7.70;;;;;;;;;;5037277;28;20025;-89
2022/03/22 14:13:31;;;;;;;17.55;8.68;;;;;;;;;;5037032;28;20014;-89
2022/03/22 14:15:57;;;;;;;22.75;8.10;;;;;;;;;;5040942;28;20047;-89
2022/03/22 14:18:23;;;;;;;16.33;7.70;;;;;;;;;;5041237;28;20021;-90
2022/03/22 14:20:50;;;;;;;12.90;8.30;;;;;;;;;;5040781;28;20071;-89
2022/03/22 14:23:17;;;;;;;15.68;9.20;;;;;;;;;;5040812;28;20471;-89
2022/03/22 14:25:43;;;;;;;14.85;8.48;;;;;;;;;;5040770;28;20021;-90
2022/03/22 14:28:09;;;;;;;22.27;8.13;;;;;;;;;;5040339;28;20096;-89
2022/03/22 14:30:38;;;;;;;14.60;8.43;;;;;;;;;;5040461;28;20044;-89
2022/03/22 14:33:08;;;;;;;17.67;8.95;;;;;;;;;;5040674;28;20371;-90
2022/03/22 14:35:47;;;;;;;24.65;9.82;;;;;;;;;;5040641;28;20143;-89
2022/03/22 14:38:27;;;;;;;14.77;9.27;;;;;;;;;;5039565;28;20037;-90
2022/03/22 14:40:54;;;;;;;14.60;9.10;;;;;;;;;;5040209;28;20022;-91
2022/03/22 14:43:23;;;;;;;23.05;8.93;;;;;;;;;;5041047;28;20319;-90
2022/03/22 14:45:49;;;;;;;68.97;11.93;;;;;;;;;;5039588;28;20049;-90
2022/03/22 14:48:23;;;;;;;22.92;9.18;;;;;;;;;;5040243;28;20022;-89
2022/03/22 14:50:49;;;;;;;37.92;10.02;;;;;;;;;;5040222;28;20034;-92
2022/03/22 14:59:04;;;;;;;13.73;8.77;;;;;;;;;;5039981;28;20036;-89
2022/03/22 15:01:31;;;;;;;13.82;8.23;;;;;;;;;;5039946;28;20041;-90
2022/03/22 15:04:00;;;;;;;16.27;8.43;;;;;;;;;;5039911;28;20434;-90
2022/03/22 15:06:27;;;;;;;16.00;9.05;;;;;;;;;;5040053;28;20040;-90
2022/03/22 15:08:54;;;;;;;23.05;10.02;;;;;;;;;;5040072;28;20037;-87
2022/03/22 15:11:21;;;;;;;22.50;11.73;;;;;;;;;;5039613;28;20035;-90